Flight Track Log - Related Links

Times and Time Zones

All times are in EDT time to prevent confusion due to time zone crossing. See the SWA3943 flight status page for this flight to view local times or setup timezone preferences in your user account.


Time Position Orientation Groundspeed Altitude Reporting Facility
EDT Latitude Longitude Course Direction KTS MPH feet Rate Location/Type
Wed 10:05:06 AM 39.8603 -75.2783 254° West 176 203 800  Level FAA TRACON SMA TRACON (SMA)
Wed 10:05:26 AM 39.8569 -75.2939 254° West 157 181 1,400 1,800 Climbing FAA TRACON SMA TRACON (SMA)
Wed 10:05:46 AM 39.8514 -75.3178 253° West 184 212 2,000 2,100 Climbing FAA TRACON SMA TRACON (SMA)
Wed 10:06:06 AM 39.8461 -75.3381 251° West 192 221 2,800 2,550 Climbing FAA TRACON SMA TRACON (SMA)
Wed 10:06:26 AM 39.8408 -75.3592 252° West 196 226 3,700 2,250 Climbing FAA TRACON SMA TRACON (SMA)
Wed 10:06:46 AM 39.8347 -75.3886 255° West 230 265 4,300 2,100 Climbing FAA TRACON SMA TRACON (SMA)
Wed 10:07:06 AM 39.8386 -75.4133 282° West 233 268 5,100 2,550 Climbing FAA TRACON SMA TRACON (SMA)
Wed 10:07:26 AM 39.8539 -75.4322 316° Northwest 241 277 6,000 3,300 Climbing FAA TRACON SMA TRACON (SMA)
Wed 10:07:46 AM 39.8739 -75.4550 319° Northwest 248 285 7,300 3,300 Climbing FAA TRACON SMA TRACON (SMA)
Wed 10:08:06 AM 39.8819 -75.4792 293° West 250 288 8,200 3,000 Climbing FAA TRACON SMA TRACON (SMA)
Wed 10:08:26 AM 39.8867 -75.5094 281° West 265 305 9,300 2,700 Climbing FAA TRACON SMA TRACON (SMA)
Wed 10:08:46 AM 39.8869 -75.5458 271° West 258 297 10,000 1,650 Climbing FAA TRACON SMA TRACON (SMA)
Wed 10:09:06 AM 39.8883 -75.5747 274° West 261 300 10,400 1,200 Climbing FAA TRACON SMA TRACON (SMA)
Wed 10:09:26 AM 39.8889 -75.6072 271° West 299 344 10,800 2,250 Climbing FAA TRACON SMA TRACON (SMA)
Wed 10:09:46 AM 39.8911 -75.6492 274° West 313 360 11,900 3,150 Climbing FAA TRACON SMA TRACON (SMA)
Wed 10:10:06 AM 39.8931 -75.6858 274° West 319 367 12,900 3,300 Climbing FAA TRACON SMA TRACON (SMA)
Wed 10:10:26 AM 39.8939 -75.7211 272° West 322 371 14,100 3,750 Climbing FAA TRACON SMA TRACON (SMA)
Wed 10:10:46 AM 39.8956 -75.7678 273° West 326 375 15,400 3,209 Climbing FAA TRACON SMA TRACON (SMA)
Wed 10:11:09 AM 39.8972 -75.8047 273° West 330 380 16,400 3,070 Climbing FAA TRACON SMA TRACON (SMA)
Wed 10:11:29 AM 39.8989 -75.8497 273° West 334 384 17,600 2,595 Climbing FAA TRACON SMA TRACON (SMA)
Wed 10:11:46 AM 39.9003 -75.8683 276° West 336 387 18,000 649 Climbing FAA TRACON SMA TRACON (SMA)
Wed 10:12:06 AM 39.9003 -75.8683 229° Southwest 336 387 18,000 2,374 Level FAA TRACON SMA TRACON (SMA)
Wed 10:14:05 AM 39.9103 -76.1808 272° West 369 425 23,500 2,596 Climbing New York Center
Wed 10:15:04 AM 39.8706 -76.3158 249° West 385 443 25,700 2,092 Climbing New York Center
Wed 10:15:54 AM 39.8253 -76.4478 246° West 413 475 27,300 1,691 Climbing Washington Center
Wed 10:16:54 AM 39.7889 -76.5769 250° West 406 467 28,800 1,900 Climbing Washington Center
Wed 10:17:54 AM 39.7458 -76.7222 249° West 424 488 31,100 2,350 Climbing Washington Center
Wed 10:18:54 AM 39.6942 -76.8833 247° West 436 502 33,500 2,050 Climbing Washington Center
Wed 10:19:54 AM 39.6575 -77.0039 248° West 430 495 35,200 1,250 Climbing Washington Center
Wed 10:20:54 AM 39.6097 -77.1539 248° West 419 482 36,000 400 Climbing Washington Center
Wed 10:21:54 AM 39.5706 -77.2767 248° West 412 474 36,000  Level Washington Center
Wed 10:22:54 AM 39.5228 -77.4236 247° West 411 473 36,000  Level Washington Center
Wed 10:23:54 AM 39.4833 -77.5464 247° West 411 473 36,000  Level Washington Center
Wed 10:24:54 AM 39.4369 -77.6928 248° West 411 473 36,000  Level Washington Center
Wed 10:25:54 AM 39.3975 -77.8100 247° West 411 473 36,000  Level Washington Center
Wed 10:26:54 AM 39.3486 -77.9614 247° West 411 473 36,000  Level Washington Center
Wed 10:27:54 AM 39.2897 -78.0881 239° Southwest 419 482 36,000  Level Washington Center
Wed 10:28:54 AM 39.2436 -78.2044 243° Southwest 414 476 36,000  Level Washington Center
Wed 10:29:54 AM 39.1883 -78.3444 243° Southwest 405 466 36,000  Level Washington Center
Wed 10:30:54 AM 39.1397 -78.4606 242° Southwest 405 466 36,000  Level Washington Center
Wed 10:31:54 AM 39.0842 -78.6028 243° Southwest 405 466 36,000  Level Washington Center
Wed 10:32:54 AM 39.0417 -78.7211 245° Southwest 405 466 36,000  Level Washington Center
Wed 10:33:54 AM 38.9903 -78.8497 243° Southwest 405 466 36,000  Level Washington Center
Wed 10:34:54 AM 38.9325 -78.9753 239° Southwest 405 466 36,000  Level Washington Center
Wed 10:35:54 AM 38.8722 -79.1167 241° Southwest 410 472 36,000  Level Washington Center
Wed 10:36:54 AM 38.8347 -79.2561 251° West 410 472 36,000  Level Washington Center
Wed 10:37:54 AM 38.8094 -79.3933 257° West 410 472 36,000  Level Washington Center
Wed 10:38:54 AM 38.7844 -79.5278 257° West 395 455 36,000  Level Washington Center
Wed 10:40:47 AM 38.7375 -79.7700 256° West 407 468 36,000  Level Indianapolis Center
Wed 10:41:49 AM 38.7114 -79.9111 257° West 406 467 36,000  Level Indianapolis Center
Wed 10:42:51 AM 38.6789 -80.0803 256° West 407 468 36,000  Level Indianapolis Center
Wed 10:43:52 AM 38.6528 -80.2206 257° West 407 468 36,000  Level Indianapolis Center
Wed 10:44:55 AM 38.6256 -80.3608 256° West 405 466 36,000  Level Indianapolis Center
Wed 10:45:56 AM 38.6006 -80.5014 257° West 405 466 36,000  Level Indianapolis Center
Wed 10:46:57 AM 38.5725 -80.6406 256° West 404 465 36,000  Level Indianapolis Center
Wed 10:47:59 AM 38.5458 -80.7811 256° West 405 466 36,000  Level Indianapolis Center
Wed 10:49:01 AM 38.5189 -80.9211 256° West 405 466 36,000  Level Indianapolis Center
Wed 10:50:03 AM 38.4914 -81.0608 256° West 405 466 36,000  Level Indianapolis Center
Wed 10:51:04 AM 38.4636 -81.1992 256° West 402 463 36,000  Level Indianapolis Center
Wed 10:52:06 AM 38.4358 -81.3397 256° West 403 464 36,000  Level Indianapolis Center
Wed 10:53:08 AM 38.4028 -81.5075 256° West 401 461 36,000  Level Indianapolis Center
Wed 10:54:09 AM 38.3750 -81.6475 256° West 404 465 36,000  Level Indianapolis Center
Wed 10:55:11 AM 38.3483 -81.7869 256° West 402 463 36,000  Level Indianapolis Center
Wed 10:56:13 AM 38.3425 -81.9311 267° West 407 468 36,000  Level Indianapolis Center
Wed 10:57:14 AM 38.3342 -82.0742 266° West 404 465 36,000  Level Indianapolis Center
Wed 10:58:16 AM 38.3278 -82.2175 267° West 405 466 36,000  Level Indianapolis Center
Wed 10:59:17 AM 38.3203 -82.3608 266° West 405 466 36,000  Level Indianapolis Center
Wed 11:00:19 AM 38.3119 -82.5053 266° West 403 464 36,000  Level Indianapolis Center
Wed 11:01:21 AM 38.3031 -82.6758 266° West 413 475 36,000  Level Indianapolis Center
Wed 11:02:22 AM 38.2950 -82.8186 266° West 409 471 36,000  Level Indianapolis Center
Wed 11:03:24 AM 38.2861 -82.9656 266° West 414 476 36,000  Level Indianapolis Center
Wed 11:04:26 AM 38.2775 -83.1114 266° West 414 476 36,000  Level Indianapolis Center
Wed 11:05:27 AM 38.2767 -83.2547 270° West 417 480 36,000  Level Indianapolis Center
Wed 11:06:29 AM 38.3508 -83.3606 312° West 409 471 36,000  Level Indianapolis Center
Wed 11:07:31 AM 38.4358 -83.4639 316° Northwest 416 479 36,000  Level Indianapolis Center
Wed 11:08:32 AM 38.5344 -83.5806 317° Northwest 415 478 36,000  Level Indianapolis Center
Wed 11:09:34 AM 38.6200 -83.6808 318° Northwest 415 478 36,000  Level Indianapolis Center
Wed 11:10:36 AM 38.7075 -83.7858 317° Northwest 418 481 36,000  Level Indianapolis Center
Wed 11:11:37 AM 38.7942 -83.8883 317° Northwest 419 482 36,000  Level Indianapolis Center
Wed 11:12:39 AM 38.8806 -83.9931 317° Northwest 420 483 36,000  Level Indianapolis Center
Wed 11:13:41 AM 38.9669 -84.1000 316° Northwest 424 488 36,000 -488 Level Indianapolis Center
Wed 11:14:42 AM 39.0542 -84.2056 317° Northwest 424 488 35,000 -927 Descending Indianapolis Center
Wed 11:15:44 AM 39.1403 -84.3106 317° Northwest 422 486 34,100 -968 Descending Indianapolis Center
Wed 11:16:46 AM 39.2264 -84.4158 317° Northwest 422 486 33,000 -968 Descending Indianapolis Center
Wed 11:17:48 AM 39.3078 -84.5222 315° West 415 478 32,100 -919 Descending Indianapolis Center
Wed 11:18:50 AM 39.3794 -84.6331 310° West 400 460 31,100 -1,220 Descending Indianapolis Center
Wed 11:19:51 AM 39.4558 -84.7386 313° West 398 458 29,600 -1,317 Descending Indianapolis Center
Wed 11:20:53 AM 39.5467 -84.8589 314° West 396 456 28,400 -774 Descending Indianapolis Center
Wed 11:21:55 AM 39.6264 -84.9550 317° Northwest 389 448 28,000 -194 Descending Indianapolis Center
Wed 11:22:57 AM 39.7081 -85.0506 318° Northwest 389 448 28,000  Level Indianapolis Center
Wed 11:23:59 AM 39.7872 -85.1472 317° Northwest 387 445 28,000  Level Indianapolis Center
Wed 11:25:01 AM 39.8675 -85.2439 317° Northwest 387 445 28,000  Level Indianapolis Center
Wed 11:26:02 AM 39.9511 -85.3456 317° Northwest 402 463 28,000 -488 Level Indianapolis Center
Wed 11:27:04 AM 40.0333 -85.4478 316° Northwest 405 466 27,000 -1,258 Descending Indianapolis Center
Wed 11:28:06 AM 40.1183 -85.5500 317° Northwest 408 470 25,400 -1,452 Descending Indianapolis Center
Wed 11:29:08 AM 40.2011 -85.6508 317° Northwest 406 467 24,000 -667 Descending Indianapolis Center
Wed 11:30:12 AM 40.2964 -85.7567 320° Northwest 397 457 24,000 -429 Level Chicago Center
Wed 11:31:14 AM 40.3900 -85.8369 327° Northwest 394 453 23,100 -927 Descending Chicago Center
Wed 11:32:15 AM 40.4747 -85.9147 325° Northwest 384 442 22,100 -976 Descending Chicago Center
Wed 11:33:17 AM 40.5594 -85.9894 326° Northwest 374 430 21,100 -976 Descending Chicago Center
Wed 11:34:18 AM 40.6414 -86.0628 326° Northwest 361 415 20,100 -1,073 Descending Chicago Center
Wed 11:35:20 AM 40.7239 -86.1378 325° Northwest 359 413 18,900 -1,756 Descending Chicago Center
Wed 11:36:21 AM 40.8192 -86.2231 326° Northwest 350 403 16,500 -2,146 Descending Chicago Center
Wed 11:37:23 AM 40.8969 -86.2944 325° Northwest 341 392 14,500 -1,805 Descending Chicago Center
Wed 11:38:24 AM 40.9719 -86.3622 326° Northwest 331 381 12,800 -1,707 Descending Chicago Center
Wed 11:39:26 AM 41.0439 -86.4289 325° Northwest 319 367 11,000 -927 Descending Chicago Center
Wed 11:40:27 AM 41.0953 -86.5047 312° West 273 314 10,900 -488 Descending Chicago Center
Wed 11:41:29 AM 41.1436 -86.5803 310° West 269 310 10,000 -439 Descending Chicago Center
Wed 11:42:30 AM 41.1917 -86.6533 311° West 264 304 10,000  Level Chicago Center
Wed 11:43:32 AM 41.2461 -86.7361 311° West 262 302 10,000  Level Chicago Center
Wed 11:44:33 AM 41.2922 -86.8097 310° West 261 300 10,000  Level Chicago Center
Wed 11:45:35 AM 41.3397 -86.8831 311° West 263 303 10,000 -49 Level Chicago Center
Wed 11:46:36 AM 41.3869 -86.9561 311° West 263 303 9,900 -732 Descending Chicago Center
Wed 11:47:38 AM 41.4336 -87.0297 310° West 262 302 8,500 -1,415 Descending Chicago Center
Wed 11:48:39 AM 41.4797 -87.1008 311° West 257 296 7,000 -1,389 Descending Chicago Center
Wed 11:49:26 AM 41.5167 -87.1667 307° West 249 287 6,000 -561 Descending Chicago TRACON
Wed 11:50:26 AM 41.5167 -87.2667 270° West 236 272 6,000 -450 Level Chicago TRACON
Wed 11:51:26 AM 41.5167 -87.3500 270° West 234 269 5,100 -952 Descending Chicago TRACON
Wed 11:52:32 AM 41.5333 -87.4333 285° West 238 274 4,000 -550 Descending Chicago TRACON
Wed 11:53:26 AM 41.5500 -87.5167 285° West 235 270 4,000  Level Chicago TRACON
Wed 11:53:47 AM 41.5514 -87.5353 276° West 237 273 4,000  Level Chicago Center
Wed 11:54:49 AM 41.5583 -87.6206 276° West 235 270 4,000  Level Chicago Center
Wed 11:55:50 AM 41.5683 -87.7225 278° West 234 269 4,000 -390 Level Chicago Center
Wed 11:56:52 AM 41.5750 -87.7994 277° West 225 259 3,200 -488 Descending Chicago Center
Wed 11:57:53 AM 41.5822 -87.8706 278° West 210 242 3,000 -98 Descending Chicago Center
Wed 11:58:55 AM 41.6144 -87.9147 314° West 186 214 3,000  Level Chicago Center
Wed 11:59:56 AM 41.6642 -87.9022 11° North 184 212 3,000  Level Chicago Center
Wed 12:00:33 PM 41.7000 -87.8667 37° Northeast 190 219 3,000 -593 Level Chicago TRACON
Wed 12:01:27 PM 41.7333 -87.8167 48° Northeast 182 209 2,100 -895 Descending Chicago TRACON
Wed 12:02:27 PM 41.7500 -87.7833 56° Northeast 121 139 1,300 -800 Descending Chicago TRACON
Wed 12:05:00 PM 41.7833 -87.7500 334° Northwest  Level FlightAware Approximate

Login

Don't have an account? Register now (free) for customized features, flight alerts, and more!